createdAt,value
2023-05-10T00:00:52.653Z,13.70
2023-05-10T00:03:21.375Z,13.60
2023-05-10T00:05:50.092Z,13.60
2023-05-10T00:08:20.066Z,13.60
2023-05-10T00:10:48.634Z,13.60
2023-05-10T00:13:17.465Z,13.60
2023-05-10T00:15:46.152Z,13.60
2023-05-10T00:18:14.687Z,13.60
2023-05-10T00:20:43.247Z,13.60
2023-05-10T00:23:11.817Z,13.50
2023-05-10T00:25:41.770Z,13.50
2023-05-10T00:28:10.382Z,13.50
2023-05-10T00:30:38.990Z,13.40
2023-05-10T00:33:07.917Z,13.40
2023-05-10T00:35:36.503Z,13.40
2023-05-10T00:38:04.963Z,13.40
2023-05-10T00:40:33.424Z,13.30
2023-05-10T00:43:03.405Z,13.30
2023-05-10T00:45:33.394Z,13.30
2023-05-10T00:48:05.026Z,13.30
2023-05-10T00:50:34.076Z,13.30
2023-05-10T00:53:03.355Z,13.30
2023-05-10T00:55:32.647Z,13.40
2023-05-10T00:58:02.639Z,13.30
2023-05-10T01:00:31.458Z,13.40
2023-05-10T01:03:00.912Z,13.40
2023-05-10T01:05:29.700Z,13.30
2023-05-10T01:07:58.972Z,13.30
2023-05-10T01:10:27.879Z,13.40
2023-05-10T01:12:57.205Z,13.30
2023-05-10T01:15:27.421Z,13.30
2023-05-10T01:17:56.943Z,13.30
2023-05-10T01:20:26.799Z,13.20
2023-05-10T01:23:27.247Z,13.20
2023-05-10T01:26:23.004Z,13.10
2023-05-10T01:29:25.376Z,13.10
2023-05-10T01:32:27.661Z,13.00
2023-05-10T01:35:02.455Z,13.00
2023-05-10T01:37:46.086Z,13.00
2023-05-10T01:40:23.866Z,13.10
2023-05-10T01:43:01.710Z,13.00
2023-05-10T01:45:34.533Z,13.00
2023-05-10T01:48:09.276Z,12.90
2023-05-10T01:50:40.870Z,12.90
2023-05-10T01:53:11.837Z,12.90
2023-05-10T01:55:45.899Z,12.90
2023-05-10T01:58:17.677Z,12.90
2023-05-10T02:00:49.123Z,12.90
2023-05-10T02:03:20.894Z,12.90
2023-05-10T02:05:51.820Z,12.90
2023-05-10T02:08:21.321Z,12.80
2023-05-10T02:10:51.516Z,12.80
2023-05-10T02:13:22.009Z,12.80
2023-05-10T02:15:52.274Z,12.80
2023-05-10T02:18:23.808Z,12.80
2023-05-10T02:20:54.718Z,12.80
2023-05-10T02:23:24.179Z,12.80
2023-05-10T02:25:54.744Z,12.80
2023-05-10T02:28:24.607Z,12.80
2023-05-10T02:30:54.683Z,12.70
2023-05-10T02:33:25.487Z,12.70
2023-05-10T02:35:55.615Z,12.60
2023-05-10T02:38:26.518Z,12.60
2023-05-10T02:40:56.147Z,12.60
2023-05-10T02:43:26.929Z,12.60
2023-05-10T02:45:55.968Z,12.60
2023-05-10T02:48:25.977Z,12.60
2023-05-10T02:50:57.257Z,12.60
2023-05-10T02:53:35.712Z,12.60
2023-05-10T02:56:10.987Z,12.60
2023-05-10T02:58:39.572Z,12.50
2023-05-10T03:01:09.009Z,12.50
2023-05-10T03:03:39.133Z,12.50
2023-05-10T03:06:08.559Z,12.50
2023-05-10T03:08:37.243Z,12.50
2023-05-10T03:11:30.600Z,12.50
2023-05-10T03:14:10.589Z,12.60
2023-05-10T03:16:48.108Z,12.70
2023-05-10T03:19:24.832Z,12.70
2023-05-10T03:21:55.226Z,12.80
2023-05-10T03:24:25.673Z,12.80
2023-05-10T03:26:58.019Z,12.80
2023-05-10T03:29:28.728Z,12.70
2023-05-10T03:31:57.620Z,12.80
2023-05-10T03:34:28.031Z,12.80
2023-05-10T03:36:56.534Z,12.80
2023-05-10T03:39:25.917Z,12.80
2023-05-10T03:41:54.524Z,12.80
2023-05-10T03:44:23.017Z,12.80
2023-05-10T03:46:52.038Z,12.80
2023-05-10T03:49:20.591Z,12.70
2023-05-10T03:51:50.825Z,12.70
2023-05-10T03:54:19.539Z,12.80
2023-05-10T03:56:49.074Z,12.80
2023-05-10T03:59:17.632Z,12.80
2023-05-10T04:01:46.469Z,12.80
2023-05-10T04:04:15.073Z,12.80
2023-05-10T04:06:43.674Z,12.80
2023-05-10T04:09:13.627Z,12.80
2023-05-10T04:11:42.302Z,12.80
2023-05-10T04:14:10.841Z,12.80
2023-05-10T04:16:39.675Z,12.80
2023-05-10T04:19:08.593Z,12.80
2023-05-10T04:21:37.137Z,12.80
2023-05-10T04:24:06.398Z,12.70
2023-05-10T04:26:36.399Z,12.70
2023-05-10T04:29:04.904Z,12.80
2023-05-10T04:31:35.381Z,12.80
2023-05-10T04:34:04.348Z,12.80
2023-05-10T04:36:33.553Z,12.90
2023-05-10T04:39:02.101Z,12.90
2023-05-10T04:41:30.939Z,12.90
2023-05-10T04:44:00.850Z,12.90
2023-05-10T04:46:29.496Z,12.90
2023-05-10T04:48:58.080Z,12.90
2023-05-10T04:51:26.988Z,12.90
2023-05-10T04:54:05.328Z,12.90
2023-05-10T04:56:34.928Z,12.90
2023-05-10T04:59:05.186Z,13.00
2023-05-10T05:01:33.767Z,13.00
2023-05-10T05:04:02.581Z,13.00
2023-05-10T05:06:31.161Z,13.00
2023-05-10T05:09:00.189Z,13.00
2023-05-10T05:11:28.669Z,13.00
2023-05-10T05:13:57.207Z,13.00
2023-05-10T05:16:27.877Z,13.00
2023-05-10T05:18:57.048Z,13.10
2023-05-10T05:21:27.953Z,13.00
2023-05-10T05:23:56.559Z,13.00
2023-05-10T05:26:25.109Z,13.10
2023-05-10T05:28:55.703Z,13.10
2023-05-10T05:31:24.337Z,13.10
2023-05-10T05:33:54.296Z,13.10
2023-05-10T05:36:22.818Z,13.10
2023-05-10T05:38:51.311Z,13.10
2023-05-10T05:41:19.823Z,13.10
2023-05-10T05:43:48.865Z,13.10
2023-05-10T05:46:17.436Z,13.00
2023-05-10T05:48:46.269Z,13.10
2023-05-10T05:51:16.331Z,13.10
2023-05-10T05:53:44.848Z,13.10
2023-05-10T05:56:13.512Z,13.10
2023-05-10T05:58:42.630Z,13.20
2023-05-10T06:01:11.214Z,13.30
2023-05-10T06:03:39.938Z,13.30
2023-05-10T06:06:08.768Z,13.40
2023-05-10T06:08:39.116Z,13.40
2023-05-10T06:11:07.654Z,13.30
2023-05-10T06:13:36.436Z,13.30
2023-05-10T06:16:05.760Z,13.40
2023-05-10T06:18:34.828Z,13.30
2023-05-10T06:21:03.430Z,13.30
2023-05-10T06:23:32.004Z,13.30
2023-05-10T06:26:02.048Z,13.30
2023-05-10T06:28:32.429Z,13.30
2023-05-10T06:31:00.989Z,13.40
2023-05-10T06:33:29.578Z,13.40
2023-05-10T06:35:58.478Z,13.40
2023-05-10T06:38:27.261Z,13.40
2023-05-10T06:40:55.828Z,13.40
2023-05-10T06:43:26.024Z,13.40
2023-05-10T06:45:54.559Z,13.50
2023-05-10T06:48:23.193Z,13.60
2023-05-10T06:50:52.110Z,13.70
2023-05-10T06:53:20.785Z,13.70
2023-05-10T06:55:49.310Z,13.80
2023-05-10T06:58:17.874Z,13.80
2023-05-10T07:00:48.397Z,13.80
2023-05-10T07:03:17.097Z,13.80
2023-05-10T07:05:45.708Z,13.90
2023-05-10T07:08:14.598Z,14.00
2023-05-10T07:10:43.121Z,14.00
2023-05-10T07:13:12.287Z,14.00
2023-05-10T07:15:41.020Z,14.00
2023-05-10T07:18:11.131Z,14.10
2023-05-10T07:20:39.824Z,14.10
2023-05-10T07:23:08.378Z,14.20
2023-05-10T07:25:36.971Z,14.40
2023-05-10T07:28:06.651Z,14.50
2023-05-10T07:30:35.209Z,14.70
2023-05-10T07:33:03.866Z,14.80
2023-05-10T07:35:35.048Z,14.90
2023-05-10T07:38:03.971Z,15.00
2023-05-10T07:40:32.737Z,15.20
2023-05-10T07:43:02.844Z,15.20
2023-05-10T07:45:31.410Z,15.30
2023-05-10T07:48:00.067Z,15.30
2023-05-10T07:50:28.682Z,15.20
2023-05-10T07:52:58.812Z,15.30
2023-05-10T07:55:27.819Z,15.10
2023-05-10T07:57:56.464Z,15.10
2023-05-10T08:00:25.155Z,15.20
2023-05-10T08:02:54.110Z,15.10
2023-05-10T08:05:22.862Z,15.10
2023-05-10T08:07:51.502Z,15.30
2023-05-10T08:10:21.668Z,15.50
2023-05-10T08:12:50.704Z,15.60
2023-05-10T08:15:19.699Z,15.60
2023-05-10T08:17:48.473Z,15.60
2023-05-10T08:20:17.977Z,15.60
2023-05-10T08:22:47.294Z,15.60
2023-05-10T08:25:17.142Z,15.50
2023-05-10T08:27:47.422Z,15.60
2023-05-10T08:30:16.409Z,15.70
2023-05-10T08:32:45.044Z,15.90
2023-05-10T08:35:13.749Z,16.00
2023-05-10T08:37:42.412Z,15.90
2023-05-10T08:40:13.891Z,16.10
2023-05-10T08:42:45.805Z,16.00
2023-05-10T08:45:18.122Z,15.90
2023-05-10T08:47:47.085Z,15.90
2023-05-10T08:50:17.267Z,15.90
2023-05-10T08:52:49.050Z,15.90
2023-05-10T08:55:18.799Z,16.00
2023-05-10T08:57:47.854Z,16.00
2023-05-10T09:00:19.325Z,16.10
2023-05-10T09:02:48.175Z,16.20
2023-05-10T09:05:18.975Z,16.20
2023-05-10T09:07:48.420Z,16.10
2023-05-10T09:10:17.515Z,16.20
2023-05-10T09:12:47.561Z,16.30
2023-05-10T09:15:20.442Z,16.20
2023-05-10T09:17:51.591Z,16.20
2023-05-10T09:20:20.327Z,16.30
2023-05-10T09:22:48.949Z,16.40
2023-05-10T09:25:18.902Z,16.30
2023-05-10T09:27:49.202Z,16.20
2023-05-10T09:30:25.433Z,16.20
2023-05-10T09:32:54.777Z,16.20
2023-05-10T09:35:27.211Z,16.10
2023-05-10T09:38:00.518Z,16.10
2023-05-10T09:40:31.140Z,16.10
2023-05-10T09:43:01.044Z,16.00
2023-05-10T09:45:32.895Z,16.00
2023-05-10T09:48:03.000Z,16.10
2023-05-10T09:50:32.165Z,16.10
2023-05-10T09:53:01.813Z,16.30
2023-05-10T09:55:45.443Z,16.40
2023-05-10T09:58:15.372Z,16.20
2023-05-10T10:00:49.027Z,16.10
2023-05-10T10:03:18.863Z,16.00
2023-05-10T10:05:48.803Z,16.00
2023-05-10T10:08:18.087Z,16.10
2023-05-10T10:10:47.621Z,16.10
2023-05-10T10:13:18.402Z,16.10
2023-05-10T10:15:52.298Z,16.20
2023-05-10T10:18:24.946Z,16.10
2023-05-10T10:20:53.879Z,16.30
2023-05-10T10:23:22.580Z,16.40
2023-05-10T10:25:53.075Z,16.30
2023-05-10T10:28:33.581Z,16.30
2023-05-10T10:31:18.437Z,16.40
2023-05-10T10:34:03.199Z,16.30
2023-05-10T10:36:32.512Z,16.30
2023-05-10T10:39:02.702Z,16.20
2023-05-10T10:41:34.311Z,16.30
2023-05-10T14:35:43.587Z,18.90
2023-05-10T14:38:15.380Z,18.90
2023-05-10T14:40:45.788Z,18.80
2023-05-10T14:43:21.768Z,18.80
2023-05-10T14:45:50.573Z,18.70
2023-05-10T14:48:22.389Z,18.70
2023-05-10T14:50:55.470Z,18.70
2023-05-10T14:54:19.310Z,18.70
2023-05-10T14:56:50.051Z,18.80
2023-05-10T14:59:22.884Z,18.90
2023-05-10T15:01:51.918Z,19.00
2023-05-10T15:04:27.775Z,18.90
2023-05-10T15:07:00.744Z,18.90
2023-05-10T15:09:30.320Z,18.80
2023-05-10T15:11:59.383Z,18.60
2023-05-10T15:14:30.346Z,18.70
2023-05-10T15:17:06.122Z,18.80
2023-05-10T15:19:35.693Z,18.90
2023-05-10T15:22:08.247Z,18.90
2023-05-10T15:24:37.158Z,19.00
2023-05-10T15:27:08.140Z,19.10
2023-05-10T15:29:37.394Z,19.20
2023-05-10T15:32:06.713Z,19.30
2023-05-10T15:34:37.113Z,19.40
2023-05-10T15:37:08.761Z,19.40
2023-05-10T15:39:38.137Z,19.50
2023-05-10T15:42:07.825Z,19.50
2023-05-10T15:44:39.690Z,19.50
2023-05-10T15:47:08.676Z,19.60
2023-05-10T15:49:38.123Z,19.60
2023-05-10T15:52:08.221Z,19.50
2023-05-10T15:54:38.571Z,19.40
2023-05-10T15:57:08.052Z,19.30
2023-05-10T15:59:36.996Z,19.30
2023-05-10T16:02:06.673Z,19.30
2023-05-10T16:04:37.332Z,19.30
2023-05-10T16:07:08.013Z,19.20
2023-05-10T16:09:37.016Z,19.30
2023-05-10T16:12:06.489Z,19.40
2023-05-10T16:14:35.750Z,19.40
2023-05-10T16:17:05.876Z,19.50
2023-05-10T16:19:37.792Z,19.60
2023-05-10T16:22:09.201Z,19.60
2023-05-10T16:24:38.899Z,19.40
2023-05-10T16:27:08.793Z,19.30
2023-05-10T16:29:39.534Z,19.30
2023-05-10T16:32:08.648Z,19.20
2023-05-10T16:34:37.710Z,19.20
2023-05-10T16:37:08.898Z,19.00
2023-05-10T16:39:39.877Z,18.80
2023-05-10T16:42:09.756Z,18.80
2023-05-10T16:44:39.428Z,18.70
2023-05-10T16:47:08.644Z,18.70
2023-05-10T16:49:38.076Z,18.70
2023-05-10T16:52:07.068Z,18.60
2023-05-10T16:54:40.347Z,18.40
2023-05-10T16:57:09.409Z,18.40
2023-05-10T16:59:38.579Z,18.40
2023-05-10T17:02:08.345Z,18.20
2023-05-10T17:04:38.337Z,18.10
2023-05-10T17:07:07.428Z,18.10
2023-05-10T17:09:36.625Z,18.10
2023-05-10T17:12:07.593Z,18.10
2023-05-10T17:14:42.191Z,18.10
2023-05-10T17:17:11.632Z,18.30
2023-05-10T17:19:40.824Z,18.40
2023-05-10T17:22:11.091Z,18.40
2023-05-10T17:24:44.158Z,18.50
2023-05-10T17:27:15.747Z,18.40
2023-05-10T17:29:45.454Z,18.30
2023-05-10T17:32:17.869Z,18.30
2023-05-10T17:34:47.305Z,18.20
2023-05-10T17:37:16.330Z,18.10
2023-05-10T17:39:48.572Z,18.00
2023-05-10T17:42:20.911Z,18.00
2023-05-10T17:44:51.137Z,18.10
2023-05-10T17:47:20.626Z,18.00
2023-05-10T17:49:54.689Z,18.00
2023-05-10T17:52:32.777Z,17.90
2023-05-10T17:55:06.608Z,17.80
2023-05-10T17:57:40.549Z,17.80
2023-05-10T18:00:17.212Z,17.70
2023-05-10T18:02:54.582Z,17.60
2023-05-10T18:05:24.501Z,17.50
2023-05-10T18:07:57.958Z,17.50
2023-05-10T18:10:26.860Z,17.50
2023-05-10T18:12:58.814Z,17.50
2023-05-10T18:15:34.099Z,17.40
2023-05-10T18:18:08.425Z,17.40
2023-05-10T18:20:39.149Z,17.30
2023-05-10T18:23:08.161Z,17.30
2023-05-10T18:25:46.619Z,17.20
2023-05-10T18:28:23.269Z,17.20
2023-05-10T18:30:55.176Z,17.10
2023-05-10T18:33:36.154Z,17.00
2023-05-10T18:36:18.953Z,16.90
2023-05-10T18:38:53.903Z,16.90
2023-05-10T18:41:23.050Z,16.80
2023-05-10T18:43:55.884Z,16.70
2023-05-10T18:46:30.603Z,16.60
2023-05-10T18:49:14.583Z,16.60
2023-05-10T18:51:51.732Z,16.60
2023-05-10T18:54:21.860Z,16.60
2023-05-10T18:57:00.358Z,16.50
2023-05-10T18:59:47.717Z,16.40
2023-05-10T19:02:16.545Z,16.40
2023-05-10T19:04:48.370Z,16.40
2023-05-10T19:07:20.338Z,16.30
2023-05-10T19:09:53.327Z,16.30
2023-05-10T19:12:22.612Z,16.30
2023-05-10T19:14:53.128Z,16.20
2023-05-10T19:17:29.306Z,16.20
2023-05-10T19:20:04.796Z,16.10
2023-05-10T19:22:47.157Z,16.10
2023-05-10T19:25:29.574Z,16.00
2023-05-10T19:28:19.382Z,15.90
2023-05-10T19:30:55.724Z,15.90
2023-05-10T19:33:25.202Z,15.80
2023-05-10T19:35:57.442Z,15.80
2023-05-10T19:38:31.406Z,15.70
2023-05-10T19:41:02.899Z,15.60
2023-05-10T19:43:37.855Z,15.50
2023-05-10T19:46:10.254Z,15.50
2023-05-10T19:48:47.862Z,15.50
2023-05-10T19:51:24.458Z,15.50
2023-05-10T19:53:53.703Z,15.50
2023-05-10T19:56:24.747Z,15.50
2023-05-10T19:58:56.208Z,15.40
2023-05-10T20:01:27.016Z,15.40
2023-05-10T20:03:57.473Z,15.40
2023-05-10T20:06:26.630Z,15.30
2023-05-10T20:08:56.184Z,15.30
2023-05-10T20:11:29.548Z,15.30
2023-05-10T20:13:58.699Z,15.30
2023-05-10T20:16:31.960Z,15.30
2023-05-10T20:19:05.339Z,15.30
2023-05-10T20:21:34.694Z,15.20
2023-05-10T20:24:05.887Z,15.20
2023-05-10T20:26:36.808Z,15.20
2023-05-10T20:29:06.573Z,15.20
2023-05-10T20:31:38.837Z,15.20
2023-05-10T20:34:07.570Z,15.10
2023-05-10T20:36:36.789Z,15.10
2023-05-10T20:39:06.537Z,15.00
2023-05-10T20:41:35.965Z,15.00
2023-05-10T20:44:06.119Z,15.00
2023-05-10T20:46:36.464Z,14.90
2023-05-10T20:49:06.922Z,14.90
2023-05-10T20:51:36.820Z,14.90
2023-05-10T20:54:06.311Z,14.90
2023-05-10T20:56:35.363Z,14.90
2023-05-10T20:59:04.188Z,14.90
2023-05-10T21:01:33.822Z,14.90
2023-05-10T21:04:04.480Z,14.90
2023-05-10T21:06:37.871Z,14.80
2023-05-10T21:09:07.537Z,14.80
2023-05-10T21:11:38.660Z,14.80
2023-05-10T21:14:10.171Z,14.80
2023-05-10T21:16:40.606Z,14.80
2023-05-10T21:19:11.848Z,14.70
2023-05-10T21:21:41.069Z,14.70
2023-05-10T21:24:10.191Z,14.70
2023-05-10T21:26:40.371Z,14.60
2023-05-10T21:29:10.363Z,14.60
2023-05-10T21:31:39.884Z,14.60
2023-05-10T21:34:11.047Z,14.60
2023-05-10T21:36:40.680Z,14.60
2023-05-10T21:39:10.090Z,14.60
2023-05-10T21:41:39.283Z,14.50
2023-05-10T21:44:08.685Z,14.50
2023-05-10T21:46:40.949Z,14.50
2023-05-10T21:49:15.055Z,14.50
2023-05-10T21:51:44.231Z,14.50
2023-05-10T21:54:16.607Z,14.50
2023-05-10T21:56:45.793Z,14.50
2023-05-10T21:59:15.535Z,14.50
2023-05-10T22:01:44.272Z,14.50
2023-05-10T22:04:14.783Z,14.50
2023-05-10T22:06:44.358Z,14.50
2023-05-10T22:09:13.446Z,14.50
2023-05-10T22:11:42.327Z,14.50
2023-05-10T22:14:13.594Z,14.50
2023-05-10T22:16:42.382Z,14.50
2023-05-10T22:19:11.523Z,14.50
2023-05-10T22:21:41.533Z,14.50
2023-05-10T22:24:10.538Z,14.50
2023-05-10T22:26:41.266Z,14.50
2023-05-10T22:29:10.502Z,14.60
2023-05-10T22:31:39.241Z,14.60
2023-05-10T22:34:08.000Z,14.60
2023-05-10T22:36:36.573Z,14.60
2023-05-10T22:39:06.459Z,14.60
2023-05-10T22:41:35.320Z,14.60
2023-05-10T22:44:05.172Z,14.60
2023-05-10T22:46:36.588Z,14.60
2023-05-10T22:49:05.638Z,14.50
2023-05-10T22:51:34.396Z,14.50
2023-05-10T22:54:03.207Z,14.60
2023-05-10T22:56:33.619Z,14.60
2023-05-10T22:59:02.537Z,14.60
2023-05-10T23:01:31.205Z,14.60
2023-05-10T23:04:01.129Z,14.60
2023-05-10T23:06:29.820Z,14.60
2023-05-10T23:08:58.333Z,14.60
2023-05-10T23:11:27.174Z,14.60
2023-05-10T23:13:57.152Z,14.60
2023-05-10T23:16:25.888Z,14.60
2023-05-10T23:18:56.513Z,14.60
2023-05-10T23:21:25.390Z,14.50
2023-05-10T23:23:54.901Z,14.50
2023-05-10T23:26:23.456Z,14.50
2023-05-10T23:28:52.310Z,14.40
2023-05-10T23:31:22.350Z,14.40
2023-05-10T23:33:50.829Z,14.40
2023-05-10T23:36:19.454Z,14.40
2023-05-10T23:38:48.590Z,14.30
2023-05-10T23:41:17.050Z,14.20
2023-05-10T23:43:45.713Z,14.20
2023-05-10T23:46:14.348Z,14.10
2023-05-10T23:48:44.304Z,14.00
2023-05-10T23:51:12.697Z,14.00
2023-05-10T23:53:41.496Z,13.90
2023-05-10T23:56:10.057Z,13.90
2023-05-10T23:58:38.770Z,13.90
